Terminal Aerodrome Forecast
Issued by NWS

Home | Current Version | Previous Version | Text Only | Print | Product List | Glossary On
Versions: 1 2 3 4 5 6 7 8 9 10 11
000
FTUS45 KRIW 211700
TAFWRL
TAF
KWRL 211720Z 2118/2218 23007KT P6SM VCSH BKN070
     FM212300 33017G25KT P6SM VCSH BKN060
     FM220700 31008KT P6SM BKN080=

USA.gov is the U.S. government's official web portal to all federal, state and local government web resources and services.